sensor_id;sensor_type;location;lat;lon;timestamp;pressure;altitude;pressure_sealevel;temperature;humidity
11212;BME280;5663;50.864;12.096;2022-11-20T00:01:14;99057.78;;;-4.71;67.42
11212;BME280;5663;50.864;12.096;2022-11-20T00:03:46;99056.94;;;-4.72;67.12
11212;BME280;5663;50.864;12.096;2022-11-20T00:06:15;99020.50;;;-4.93;66.98
11212;BME280;5663;50.864;12.096;2022-11-20T00:08:44;98944.19;;;-5.39;66.58
11212;BME280;5663;50.864;12.096;2022-11-20T00:11:14;99053.53;;;-4.77;66.84
11212;BME280;5663;50.864;12.096;2022-11-20T00:13:43;99055.25;;;-4.79;67.37
11212;BME280;5663;50.864;12.096;2022-11-20T00:16:12;99052.69;;;-4.80;66.91
11212;BME280;5663;50.864;12.096;2022-11-20T00:18:40;99058.59;;;-4.80;67.35
11212;BME280;5663;50.864;12.096;2022-11-20T00:21:11;99052.69;;;-4.80;67.03
11212;BME280;5663;50.864;12.096;2022-11-20T00:23:39;99051.81;;;-4.79;67.32
11212;BME280;5663;50.864;12.096;2022-11-20T00:26:08;99053.50;;;-4.83;66.99
11212;BME280;5663;50.864;12.096;2022-11-20T00:28:38;99051.78;;;-4.88;66.82
11212;BME280;5663;50.864;12.096;2022-11-20T00:31:09;99047.56;;;-4.89;66.89
11212;BME280;5663;50.864;12.096;2022-11-20T00:33:37;99045.00;;;-4.91;67.07
11212;BME280;5663;50.864;12.096;2022-11-20T00:36:06;99045.88;;;-4.90;67.36
11212;BME280;5663;50.864;12.096;2022-11-20T00:38:35;99047.56;;;-4.89;67.29
11212;BME280;5663;50.864;12.096;2022-11-20T00:41:05;99045.88;;;-4.90;67.08
11212;BME280;5663;50.864;12.096;2022-11-20T00:43:33;99022.91;;;-5.12;66.85
11212;BME280;5663;50.864;12.096;2022-11-20T00:46:05;99050.91;;;-4.95;66.69
11212;BME280;5663;50.864;12.096;2022-11-20T00:48:34;99045.00;;;-4.99;67.17
11212;BME280;5663;50.864;12.096;2022-11-20T00:51:02;99045.00;;;-4.99;67.03
11212;BME280;5663;50.864;12.096;2022-11-20T00:53:29;99041.56;;;-5.01;66.96
11212;BME280;5663;50.864;12.096;2022-11-20T00:55:59;99033.13;;;-5.01;66.88
11212;BME280;5663;50.864;12.096;2022-11-20T00:58:29;99029.72;;;-5.03;66.80
11212;BME280;5663;50.864;12.096;2022-11-20T01:01:00;99010.22;;;-5.18;66.69
11212;BME280;5663;50.864;12.096;2022-11-20T01:03:32;99033.94;;;-5.04;66.71
11212;BME280;5663;50.864;12.096;2022-11-20T01:06:01;99036.47;;;-5.07;66.62
11212;BME280;5663;50.864;12.096;2022-11-20T01:08:30;99021.16;;;-5.19;67.34
11212;BME280;5663;50.864;12.096;2022-11-20T01:11:01;99035.63;;;-5.09;67.14
11212;BME280;5663;50.864;12.096;2022-11-20T01:13:30;99033.06;;;-5.09;66.76
11212;BME280;5663;50.864;12.096;2022-11-20T01:16:08;99039.00;;;-5.10;66.42
11212;BME280;5663;50.864;12.096;2022-11-20T01:18:42;99046.56;;;-5.13;66.66
11212;BME280;5663;50.864;12.096;2022-11-20T01:21:12;99049.09;;;-5.13;66.60
11212;BME280;5663;50.864;12.096;2022-11-20T01:23:41;99041.50;;;-5.14;66.64
11212;BME280;5663;50.864;12.096;2022-11-20T01:26:10;99032.19;;;-5.15;66.68
11212;BME280;5663;50.864;12.096;2022-11-20T01:28:39;99038.91;;;-5.19;66.61
11212;BME280;5663;50.864;12.096;2022-11-20T01:31:14;99045.69;;;-5.18;66.70
11212;BME280;5663;50.864;12.096;2022-11-20T01:33:45;99042.31;;;-5.17;66.91
11212;BME280;5663;50.864;12.096;2022-11-20T01:36:14;99044.00;;;-5.16;66.85
11212;BME280;5663;50.864;12.096;2022-11-20T01:38:42;99029.66;;;-5.18;66.56
11212;BME280;5663;50.864;12.096;2022-11-20T01:41:11;99039.78;;;-5.17;67.10
11212;BME280;5663;50.864;12.096;2022-11-20T01:44:00;99020.34;;;-5.21;66.56
11212;BME280;5663;50.864;12.096;2022-11-20T01:46:28;99015.25;;;-5.21;66.80
11212;BME280;5663;50.864;12.096;2022-11-20T01:49:01;99020.34;;;-5.21;67.01
11212;BME280;5663;50.864;12.096;2022-11-20T01:51:40;99009.31;;;-5.23;67.18
11212;BME280;5663;50.864;12.096;2022-11-20T01:54:12;99017.78;;;-5.20;66.93
11212;BME280;5663;50.864;12.096;2022-11-20T01:56:43;99018.66;;;-5.22;66.65
11212;BME280;5663;50.864;12.096;2022-11-20T01:59:14;99010.19;;;-5.21;66.62
11212;BME280;5663;50.864;12.096;2022-11-20T02:01:43;99010.19;;;-5.21;66.82
11212;BME280;5663;50.864;12.096;2022-11-20T02:04:13;99011.84;;;-5.23;67.35
11212;BME280;5663;50.864;12.096;2022-11-20T02:06:46;99006.78;;;-5.26;66.78
11212;BME280;5663;50.864;12.096;2022-11-20T02:09:16;98996.56;;;-5.37;66.77
11212;BME280;5663;50.864;12.096;2022-11-20T02:11:44;99007.56;;;-5.32;67.05
11212;BME280;5663;50.864;12.096;2022-11-20T02:14:12;98971.97;;;-5.53;66.62
11212;BME280;5663;50.864;12.096;2022-11-20T02:16:44;99008.41;;;-5.37;66.83
11212;BME280;5663;50.864;12.096;2022-11-20T02:19:19;99004.19;;;-5.38;66.88
11212;BME280;5663;50.864;12.096;2022-11-20T02:21:56;99007.56;;;-5.38;67.15
11212;BME280;5663;50.864;12.096;2022-11-20T02:24:28;99007.53;;;-5.39;67.02
11212;BME280;5663;50.864;12.096;2022-11-20T02:26:59;99010.91;;;-5.40;66.77
11212;BME280;5663;50.864;12.096;2022-11-20T02:29:33;99004.97;;;-5.44;66.81
11212;BME280;5663;50.864;12.096;2022-11-20T02:32:02;99004.97;;;-5.46;66.79
11212;BME280;5663;50.864;12.096;2022-11-20T02:34:30;99003.25;;;-5.47;66.71
11212;BME280;5663;50.864;12.096;2022-11-20T02:36:59;98982.06;;;-5.61;67.00
11212;BME280;5663;50.864;12.096;2022-11-20T02:39:28;99000.72;;;-5.48;66.66
11212;BME280;5663;50.864;12.096;2022-11-20T02:41:57;99005.78;;;-5.48;67.06
11212;BME280;5663;50.864;12.096;2022-11-20T02:44:24;98995.66;;;-5.48;66.78
11212;BME280;5663;50.864;12.096;2022-11-20T02:46:52;98997.34;;;-5.47;66.94
11212;BME280;5663;50.864;12.096;2022-11-20T02:49:20;99004.97;;;-5.46;67.17
11212;BME280;5663;50.864;12.096;2022-11-20T02:51:48;99005.00;;;-5.42;67.28
11212;BME280;5663;50.864;12.096;2022-11-20T02:54:15;98981.28;;;-5.49;66.75
11212;BME280;5663;50.864;12.096;2022-11-20T02:56:45;99000.75;;;-5.43;67.03
11212;BME280;5663;50.864;12.096;2022-11-20T02:59:13;99006.66;;;-5.45;66.58
11212;BME280;5663;50.864;12.096;2022-11-20T03:01:40;99005.78;;;-5.47;67.11
11212;BME280;5663;50.864;12.096;2022-11-20T03:04:08;99008.31;;;-5.47;66.55
11212;BME280;5663;50.864;12.096;2022-11-20T03:06:36;99006.59;;;-5.51;66.64
11212;BME280;5663;50.864;12.096;2022-11-20T03:09:04;98998.16;;;-5.53;66.42
11212;BME280;5663;50.864;12.096;2022-11-20T03:11:31;98989.69;;;-5.55;66.64
11212;BME280;5663;50.864;12.096;2022-11-20T03:14:03;98988.84;;;-5.58;66.60
11212;BME280;5663;50.864;12.096;2022-11-20T03:16:31;98987.16;;;-5.58;66.09
11212;BME280;5663;50.864;12.096;2022-11-20T03:18:59;98972.75;;;-5.62;66.76
11212;BME280;5663;50.864;12.096;2022-11-20T03:21:27;98964.28;;;-5.70;66.87
11212;BME280;5663;50.864;12.096;2022-11-20T03:23:55;98924.47;;;-5.94;66.50
11212;BME280;5663;50.864;12.096;2022-11-20T03:26:25;98957.47;;;-5.71;66.47
11212;BME280;5663;50.864;12.096;2022-11-20T03:28:54;98971.06;;;-5.66;66.46
11212;BME280;5663;50.864;12.096;2022-11-20T03:31:27;98967.59;;;-5.71;66.25
11212;BME280;5663;50.864;12.096;2022-11-20T03:33:56;98971.03;;;-5.69;66.36
11212;BME280;5663;50.864;12.096;2022-11-20T03:36:24;98971.03;;;-5.69;66.63
11212;BME280;5663;50.864;12.096;2022-11-20T03:38:53;98971.88;;;-5.70;66.83
11212;BME280;5663;50.864;12.096;2022-11-20T03:41:22;98971.00;;;-5.67;67.16
11212;BME280;5663;50.864;12.096;2022-11-20T03:43:51;98971.91;;;-5.65;67.00
11212;BME280;5663;50.864;12.096;2022-11-20T03:46:19;98970.19;;;-5.66;66.81
11212;BME280;5663;50.864;12.096;2022-11-20T03:48:48;98976.13;;;-5.63;66.80
11212;BME280;5663;50.864;12.096;2022-11-20T03:51:17;98976.13;;;-5.63;66.97
11212;BME280;5663;50.864;12.096;2022-11-20T03:53:49;98971.94;;;-5.62;66.76
11212;BME280;5663;50.864;12.096;2022-11-20T03:56:20;98956.69;;;-5.64;66.55
11212;BME280;5663;50.864;12.096;2022-11-20T03:58:49;98969.34;;;-5.64;66.83
11212;BME280;5663;50.864;12.096;2022-11-20T04:01:19;98953.25;;;-5.72;67.00
11212;BME280;5663;50.864;12.096;2022-11-20T04:03:48;98966.81;;;-5.64;66.76
11212;BME280;5663;50.864;12.096;2022-11-20T04:06:18;98955.00;;;-5.65;66.74
11212;BME280;5663;50.864;12.096;2022-11-20T04:08:46;98951.63;;;-5.65;66.76
11212;BME280;5663;50.864;12.096;2022-11-20T04:11:16;98940.53;;;-5.81;66.74
11212;BME280;5663;50.864;12.096;2022-11-20T04:13:47;98959.19;;;-5.67;66.51
11212;BME280;5663;50.864;12.096;2022-11-20T04:16:16;98928.63;;;-5.91;66.63
11212;BME280;5663;50.864;12.096;2022-11-20T04:18:45;98905.84;;;-6.02;66.72
11212;BME280;5663;50.864;12.096;2022-11-20T04:21:14;98955.75;;;-5.78;66.44
11212;BME280;5663;50.864;12.096;2022-11-20T04:23:41;98943.91;;;-5.82;66.35
11212;BME280;5663;50.864;12.096;2022-11-20T04:26:11;98947.25;;;-5.83;66.38
11212;BME280;5663;50.864;12.096;2022-11-20T04:28:40;98948.09;;;-5.84;66.41
11212;BME280;5663;50.864;12.096;2022-11-20T04:31:10;98942.16;;;-5.89;66.31
11212;BME280;5663;50.864;12.096;2022-11-20T04:33:39;98948.88;;;-5.91;66.63
11212;BME280;5663;50.864;12.096;2022-11-20T04:36:10;98892.13;;;-6.27;66.16
11212;BME280;5663;50.864;12.096;2022-11-20T04:38:41;98879.41;;;-6.36;66.57
11212;BME280;5663;50.864;12.096;2022-11-20T04:41:13;98948.88;;;-5.91;66.59
11212;BME280;5663;50.864;12.096;2022-11-20T04:43:41;98949.72;;;-5.91;66.68
11212;BME280;5663;50.864;12.096;2022-11-20T04:46:13;98948.88;;;-5.91;66.68
11212;BME280;5663;50.864;12.096;2022-11-20T04:48:41;98942.16;;;-5.92;66.67
11212;BME280;5663;50.864;12.096;2022-11-20T04:51:09;98942.13;;;-5.96;66.65
11212;BME280;5663;50.864;12.096;2022-11-20T04:53:38;98952.28;;;-5.92;66.75
11212;BME280;5663;50.864;12.096;2022-11-20T04:56:09;98955.66;;;-5.89;66.65
11212;BME280;5663;50.864;12.096;2022-11-20T04:58:37;98957.38;;;-5.88;66.67
11212;BME280;5663;50.864;12.096;2022-11-20T05:01:07;98952.28;;;-5.92;66.97
11212;BME280;5663;50.864;12.096;2022-11-20T05:03:36;98943.84;;;-5.88;66.49
11212;BME280;5663;50.864;12.096;2022-11-20T05:06:04;98955.66;;;-5.87;66.99
11212;BME280;5663;50.864;12.096;2022-11-20T05:08:34;98943.84;;;-5.88;66.63
11212;BME280;5663;50.864;12.096;2022-11-20T05:11:03;98945.50;;;-5.90;66.67
11212;BME280;5663;50.864;12.096;2022-11-20T05:13:32;98939.66;;;-5.94;66.39
11212;BME280;5663;50.864;12.096;2022-11-20T05:16:04;98938.75;;;-5.95;66.04
11212;BME280;5663;50.864;12.096;2022-11-20T05:18:33;98935.34;;;-6.00;66.55
11212;BME280;5663;50.864;12.096;2022-11-20T05:21:01;98935.34;;;-6.00;66.83
11212;BME280;5663;50.864;12.096;2022-11-20T05:23:30;98929.44;;;-6.00;66.36
11212;BME280;5663;50.864;12.096;2022-11-20T05:26:01;98930.25;;;-6.03;66.13
11212;BME280;5663;50.864;12.096;2022-11-20T05:28:29;98934.50;;;-6.02;66.71
11212;BME280;5663;50.864;12.096;2022-11-20T05:31:05;98938.72;;;-6.01;66.81
11212;BME280;5663;50.864;12.096;2022-11-20T05:33:34;98912.44;;;-6.16;66.63
11212;BME280;5663;50.864;12.096;2022-11-20T05:36:02;98917.50;;;-6.15;66.60
11212;BME280;5663;50.864;12.096;2022-11-20T05:38:31;98942.03;;;-6.08;66.07
11212;BME280;5663;50.864;12.096;2022-11-20T05:41:06;98905.56;;;-6.33;66.54
11212;BME280;5663;50.864;12.096;2022-11-20T05:43:34;98943.72;;;-6.10;66.68
11212;BME280;5663;50.864;12.096;2022-11-20T05:46:02;98941.16;;;-6.11;66.52
11212;BME280;5663;50.864;12.096;2022-11-20T05:48:32;98938.63;;;-6.13;66.56
11212;BME280;5663;50.864;12.096;2022-11-20T05:51:02;98938.59;;;-6.17;66.79
11212;BME280;5663;50.864;12.096;2022-11-20T05:53:31;98936.88;;;-6.18;66.35
11212;BME280;5663;50.864;12.096;2022-11-20T05:56:00;98930.09;;;-6.24;66.32
11212;BME280;5663;50.864;12.096;2022-11-20T05:58:29;98931.78;;;-6.25;66.26
11212;BME280;5663;50.864;12.096;2022-11-20T06:01:05;98933.47;;;-6.25;66.47
11212;BME280;5663;50.864;12.096;2022-11-20T06:03:35;98884.28;;;-6.55;66.42
11212;BME280;5663;50.864;12.096;2022-11-20T06:06:04;98933.50;;;-6.22;66.17
11212;BME280;5663;50.864;12.096;2022-11-20T06:08:32;98923.31;;;-6.27;66.57
11212;BME280;5663;50.864;12.096;2022-11-20T06:11:03;98902.91;;;-6.47;66.47
11212;BME280;5663;50.864;12.096;2022-11-20T06:13:32;98932.59;;;-6.27;66.38
11212;BME280;5663;50.864;12.096;2022-11-20T06:16:00;98919.91;;;-6.33;66.12
11212;BME280;5663;50.864;12.096;2022-11-20T06:18:28;98919.94;;;-6.30;66.24
11212;BME280;5663;50.864;12.096;2022-11-20T06:21:03;98919.91;;;-6.33;66.25
11212;BME280;5663;50.864;12.096;2022-11-20T06:23:32;98920.75;;;-6.33;66.06
11212;BME280;5663;50.864;12.096;2022-11-20T06:26:02;98896.13;;;-6.51;66.06
11212;BME280;5663;50.864;12.096;2022-11-20T06:28:30;98914.78;;;-6.39;66.06
11212;BME280;5663;50.864;12.096;2022-11-20T06:30:57;98923.22;;;-6.37;66.36
11212;BME280;5663;50.864;12.096;2022-11-20T06:33:26;98938.38;;;-6.40;66.11
11212;BME280;5663;50.864;12.096;2022-11-20T06:35:56;98937.53;;;-6.41;66.17
11212;BME280;5663;50.864;12.096;2022-11-20T06:38:26;98943.47;;;-6.34;66.22
11212;BME280;5663;50.864;12.096;2022-11-20T06:40:54;98951.09;;;-6.33;66.27
11212;BME280;5663;50.864;12.096;2022-11-20T06:43:23;98932.50;;;-6.36;66.05
11212;BME280;5663;50.864;12.096;2022-11-20T06:45:52;98932.44;;;-6.44;66.44
11212;BME280;5663;50.864;12.096;2022-11-20T06:48:21;98951.09;;;-6.33;66.30
11212;BME280;5663;50.864;12.096;2022-11-20T06:50:49;98951.13;;;-6.30;66.53
11212;BME280;5663;50.864;12.096;2022-11-20T06:53:17;98945.22;;;-6.30;66.23
11212;BME280;5663;50.864;12.096;2022-11-20T06:55:47;98946.97;;;-6.23;66.28
11212;BME280;5663;50.864;12.096;2022-11-20T06:58:15;98918.19;;;-6.37;66.17
11212;BME280;5663;50.864;12.096;2022-11-20T07:00:44;98936.84;;;-6.23;65.95
11212;BME280;5663;50.864;12.096;2022-11-20T07:03:12;98892.78;;;-6.48;66.19
11212;BME280;5663;50.864;12.096;2022-11-20T07:05:40;98928.34;;;-6.31;66.26
11212;BME280;5663;50.864;12.096;2022-11-20T07:08:09;98932.53;;;-6.32;66.03
11212;BME280;5663;50.864;12.096;2022-11-20T07:10:36;98929.94;;;-6.39;66.09
11212;BME280;5663;50.864;12.096;2022-11-20T07:13:06;98934.19;;;-6.37;66.00
11212;BME280;5663;50.864;12.096;2022-11-20T07:15:34;98933.34;;;-6.37;66.16
11212;BME280;5663;50.864;12.096;2022-11-20T07:18:02;98929.94;;;-6.39;66.29
11212;BME280;5663;50.864;12.096;2022-11-20T07:20:30;98925.00;;;-6.30;65.81
11212;BME280;5663;50.864;12.096;2022-11-20T07:22:58;98929.22;;;-6.29;66.12
11212;BME280;5663;50.864;12.096;2022-11-20T07:25:27;98938.56;;;-6.22;66.22
11212;BME280;5663;50.864;12.096;2022-11-20T07:27:57;98939.44;;;-6.15;66.72
11212;BME280;5663;50.864;12.096;2022-11-20T07:30:27;98938.66;;;-6.10;66.25
11212;BME280;5663;50.864;12.096;2022-11-20T07:32:56;98843.78;;;-6.61;66.43
11212;BME280;5663;50.864;12.096;2022-11-20T07:35:24;98940.41;;;-6.00;66.34
11212;BME280;5663;50.864;12.096;2022-11-20T07:37:52;98936.22;;;-5.96;66.15
11212;BME280;5663;50.864;12.096;2022-11-20T07:40:20;98935.38;;;-5.97;66.27
11212;BME280;5663;50.864;12.096;2022-11-20T07:42:48;98928.63;;;-5.95;66.72
11212;BME280;5663;50.864;12.096;2022-11-20T07:45:17;98921.94;;;-5.92;66.64
11212;BME280;5663;50.864;12.096;2022-11-20T07:47:46;98913.50;;;-5.85;66.53
11212;BME280;5663;50.864;12.096;2022-11-20T07:50:14;98896.63;;;-5.92;66.36
11212;BME280;5663;50.864;12.096;2022-11-20T07:52:42;98900.03;;;-5.81;66.24
11212;BME280;5663;50.864;12.096;2022-11-20T07:55:10;98905.09;;;-5.81;66.41
11212;BME280;5663;50.864;12.096;2022-11-20T07:57:38;98900.91;;;-5.75;66.41
11212;BME280;5663;50.864;12.096;2022-11-20T08:00:07;98894.22;;;-5.70;66.69
11212;BME280;5663;50.864;12.096;2022-11-20T08:02:37;98894.25;;;-5.65;66.75
11212;BME280;5663;50.864;12.096;2022-11-20T08:05:08;98890.03;;;-5.60;66.88
11212;BME280;5663;50.864;12.096;2022-11-20T08:07:38;98881.56;;;-5.63;66.55
11212;BME280;5663;50.864;12.096;2022-11-20T08:10:07;98861.28;;;-5.66;66.69
11212;BME280;5663;50.864;12.096;2022-11-20T08:12:43;98902.00;;;-5.37;66.42
11212;BME280;5663;50.864;12.096;2022-11-20T08:15:30;98896.09;;;-5.33;66.48
11212;BME280;5663;50.864;12.096;2022-11-20T08:18:02;98907.13;;;-5.22;66.38
11212;BME280;5663;50.864;12.096;2022-11-20T08:20:32;98908.03;;;-5.14;67.07
11212;BME280;5663;50.864;12.096;2022-11-20T08:23:04;98908.88;;;-5.07;66.82
11212;BME280;5663;50.864;12.096;2022-11-20T08:25:33;98906.38;;;-5.00;66.76
11212;BME280;5663;50.864;12.096;2022-11-20T08:28:03;98892.03;;;-4.98;66.94
11212;BME280;5663;50.864;12.096;2022-11-20T08:30:32;98900.53;;;-4.86;66.89
11212;BME280;5663;50.864;12.096;2022-11-20T08:33:01;98913.22;;;-4.76;66.88
11212;BME280;5663;50.864;12.096;2022-11-20T08:35:34;98905.63;;;-4.68;67.15
11212;BME280;5663;50.864;12.096;2022-11-20T08:38:02;98896.38;;;-4.58;67.21
11212;BME280;5663;50.864;12.096;2022-11-20T08:40:32;98891.31;;;-4.49;67.17
11212;BME280;5663;50.864;12.096;2022-11-20T08:43:00;98898.06;;;-4.43;67.29
11212;BME280;5663;50.864;12.096;2022-11-20T08:45:28;98907.41;;;-4.33;67.38
11212;BME280;5663;50.864;12.096;2022-11-20T08:48:00;98922.63;;;-4.27;67.02
11212;BME280;5663;50.864;12.096;2022-11-20T08:50:28;98893.00;;;-4.39;67.26
11212;BME280;5663;50.864;12.096;2022-11-20T08:53:03;98906.56;;;-4.11;67.41
11212;BME280;5663;50.864;12.096;2022-11-20T08:55:31;98901.50;;;-4.02;67.75
11212;BME280;5663;50.864;12.096;2022-11-20T08:58:03;98907.41;;;-3.93;67.42
11212;BME280;5663;50.864;12.096;2022-11-20T09:00:32;98853.25;;;-4.11;67.65
11212;BME280;5663;50.864;12.096;2022-11-20T09:03:00;98869.31;;;-3.95;67.49
11212;BME280;5663;50.864;12.096;2022-11-20T09:05:27;98899.78;;;-3.69;67.40
11212;BME280;5663;50.864;12.096;2022-11-20T09:07:56;98908.25;;;-3.62;67.74
11212;BME280;5663;50.864;12.096;2022-11-20T09:10:26;98877.75;;;-3.72;68.03
11212;BME280;5663;50.864;12.096;2022-11-20T09:12:55;98908.19;;;-3.49;67.69
11212;BME280;5663;50.864;12.096;2022-11-20T09:15:23;98910.72;;;-3.39;68.13
11212;BME280;5663;50.864;12.096;2022-11-20T09:17:52;98897.19;;;-3.38;67.99
11212;BME280;5663;50.864;12.096;2022-11-20T09:20:20;98858.22;;;-3.53;68.12
11212;BME280;5663;50.864;12.096;2022-11-20T09:22:48;98898.81;;;-3.17;68.38
11212;BME280;5663;50.864;12.096;2022-11-20T09:25:17;98898.78;;;-3.07;68.63
11212;BME280;5663;50.864;12.096;2022-11-20T09:27:46;98894.44;;;-2.92;68.63
11212;BME280;5663;50.864;12.096;2022-11-20T09:30:15;98901.16;;;-2.76;68.62
11212;BME280;5663;50.864;12.096;2022-11-20T09:32:43;98886.69;;;-2.68;68.62
11212;BME280;5663;50.864;12.096;2022-11-20T09:35:11;98903.50;;;-2.39;68.89
11212;BME280;5663;50.864;12.096;2022-11-20T09:37:40;98902.50;;;-2.20;68.91
11212;BME280;5663;50.864;12.096;2022-11-20T09:40:19;98897.25;;;-2.00;69.03
11212;BME280;5663;50.864;12.096;2022-11-20T09:42:54;98889.50;;;-1.83;68.92
11212;BME280;5663;50.864;12.096;2022-11-20T09:45:28;98838.66;;;-1.97;68.96
11212;BME280;5663;50.864;12.096;2022-11-20T09:48:18;98884.06;;;-1.50;68.94
11212;BME280;5663;50.864;12.096;2022-11-20T09:50:53;98864.44;;;-1.41;68.96
11212;BME280;5663;50.864;12.096;2022-11-20T09:53:31;98784.06;;;-1.76;68.97
11212;BME280;5663;50.864;12.096;2022-11-20T09:56:03;98876.84;;;-1.11;69.36
11212;BME280;5663;50.864;12.096;2022-11-20T09:58:35;98881.72;;;-0.94;69.27
11212;BME280;5663;50.864;12.096;2022-11-20T10:01:10;98881.59;;;-0.83;69.25
11212;BME280;5663;50.864;12.096;2022-11-20T10:03:46;98876.38;;;-0.74;69.58
11212;BME280;5663;50.864;12.096;2022-11-20T10:06:20;98883.06;;;-0.64;69.66
11212;BME280;5663;50.864;12.096;2022-11-20T10:08:57;98851.63;;;-0.69;69.64
11212;BME280;5663;50.864;12.096;2022-11-20T10:11:33;98875.03;;;-0.41;69.50
11212;BME280;5663;50.864;12.096;2022-11-20T10:14:10;98871.50;;;-0.31;69.78
11212;BME280;5663;50.864;12.096;2022-11-20T10:16:56;98851.88;;;-0.27;69.55
11212;BME280;5663;50.864;12.096;2022-11-20T10:19:43;98850.75;;;-0.11;69.79
11212;BME280;5663;50.864;12.096;2022-11-20T10:22:25;98800.81;;;-0.30;69.67
11212;BME280;5663;50.864;12.096;2022-11-20T10:25:02;98843.44;;;0.17;69.71
11212;BME280;5663;50.864;12.096;2022-11-20T10:30:37;98830.13;;;0.46;69.95
11212;BME280;5663;50.864;12.096;2022-11-20T10:33:13;98807.19;;;0.42;69.63
11212;BME280;5663;50.864;12.096;2022-11-20T10:35:44;98840.72;;;0.71;69.67
11212;BME280;5663;50.864;12.096;2022-11-20T10:38:18;98829.66;;;0.71;69.35
11212;BME280;5663;50.864;12.096;2022-11-20T10:40:51;98838.09;;;0.74;69.36
11212;BME280;5663;50.864;12.096;2022-11-20T10:43:42;98839.59;;;0.86;69.53
11212;BME280;5663;50.864;12.096;2022-11-20T10:46:15;98830.06;;;0.93;69.66
11212;BME280;5663;50.864;12.096;2022-11-20T10:48:45;98841.09;;;0.96;69.69
11212;BME280;5663;50.864;12.096;2022-11-20T10:51:21;98840.94;;;1.03;69.92
11212;BME280;5663;50.864;12.096;2022-11-20T10:54:02;98849.31;;;1.11;69.58
11212;BME280;5663;50.864;12.096;2022-11-20T10:56:36;98787.56;;;0.86;69.84
11212;BME280;5663;50.864;12.096;2022-11-20T10:59:30;98832.78;;;1.26;70.02
11212;BME280;5663;50.864;12.096;2022-11-20T11:02:14;98836.84;;;1.34;69.76
11212;BME280;5663;50.864;12.096;2022-11-20T11:04:45;98833.28;;;1.41;69.74
11212;BME280;5663;50.864;12.096;2022-11-20T11:07:19;98828.09;;;1.44;69.73
11212;BME280;5663;50.864;12.096;2022-11-20T11:09:50;98812.63;;;1.47;70.00
11212;BME280;5663;50.864;12.096;2022-11-20T11:12:20;98816.78;;;1.53;69.96
11212;BME280;5663;50.864;12.096;2022-11-20T11:14:53;98817.56;;;1.57;69.92
11212;BME280;5663;50.864;12.096;2022-11-20T11:17:26;98813.16;;;1.62;70.12
11212;BME280;5663;50.864;12.096;2022-11-20T11:20:15;98807.91;;;1.66;70.16
11212;BME280;5663;50.864;12.096;2022-11-20T11:22:45;98792.66;;;1.62;70.11
11212;BME280;5663;50.864;12.096;2022-11-20T11:25:23;98802.78;;;1.68;69.88
11212;BME280;5663;50.864;12.096;2022-11-20T11:27:52;98815.44;;;1.74;69.97
11212;BME280;5663;50.864;12.096;2022-11-20T11:30:23;98811.97;;;1.75;70.06
11212;BME280;5663;50.864;12.096;2022-11-20T11:33:04;98806.06;;;1.73;70.22
11212;BME280;5663;50.864;12.096;2022-11-20T11:35:33;98802.59;;;1.76;70.17
11212;BME280;5663;50.864;12.096;2022-11-20T11:38:04;98774.78;;;1.60;70.29
11212;BME280;5663;50.864;12.096;2022-11-20T11:40:35;98798.13;;;1.82;70.16
11212;BME280;5663;50.864;12.096;2022-11-20T11:43:06;98794.84;;;1.77;70.06
11212;BME280;5663;50.864;12.096;2022-11-20T11:45:55;98773.94;;;1.60;70.35
11212;BME280;5663;50.864;12.096;2022-11-20T11:48:24;98798.31;;;1.75;70.25
11212;BME280;5663;50.864;12.096;2022-11-20T11:50:51;98801.66;;;1.78;70.41
11212;BME280;5663;50.864;12.096;2022-11-20T11:53:21;98792.19;;;1.82;70.75
11212;BME280;5663;50.864;12.096;2022-11-20T11:55:56;98769.22;;;1.77;70.64
11212;BME280;5663;50.864;12.096;2022-11-20T11:58:40;98772.13;;;1.97;70.88
11212;BME280;5663;50.864;12.096;2022-11-20T12:01:20;98779.50;;;2.10;70.59
11212;BME280;5663;50.864;12.096;2022-11-20T12:03:59;98753.13;;;2.05;70.76
11212;BME280;5663;50.864;12.096;2022-11-20T12:06:30;98773.06;;;2.26;70.93
11212;BME280;5663;50.864;12.096;2022-11-20T12:09:04;98769.47;;;2.33;70.83
11212;BME280;5663;50.864;12.096;2022-11-20T12:11:38;98768.44;;;2.39;70.95
11212;BME280;5663;50.864;12.096;2022-11-20T12:14:15;98749.66;;;2.38;70.62
11212;BME280;5663;50.864;12.096;2022-11-20T12:16:45;98756.13;;;2.52;71.03
11212;BME280;5663;50.864;12.096;2022-11-20T12:19:15;98755.06;;;2.59;70.81
11212;BME280;5663;50.864;12.096;2022-11-20T12:21:52;98752.31;;;2.65;70.88
11212;BME280;5663;50.864;12.096;2022-11-20T12:24:37;98755.44;;;2.75;71.06
11212;BME280;5663;50.864;12.096;2022-11-20T12:30:10;98745.63;;;2.89;70.90
11212;BME280;5663;50.864;12.096;2022-11-20T12:32:54;98738.59;;;2.95;70.93
11212;BME280;5663;50.864;12.096;2022-11-20T12:35:41;98739.31;;;2.99;70.52
11212;BME280;5663;50.864;12.096;2022-11-20T12:38:43;98743.53;;;3.02;70.87
11212;BME280;5663;50.864;12.096;2022-11-20T12:41:19;98744.22;;;3.07;70.86
11212;BME280;5663;50.864;12.096;2022-11-20T12:44:15;98741.56;;;3.10;70.62
11212;BME280;5663;50.864;12.096;2022-11-20T12:47:15;98744.09;;;3.11;70.40
11212;BME280;5663;50.864;12.096;2022-11-20T12:49:58;98744.81;;;3.15;70.80
11212;BME280;5663;50.864;12.096;2022-11-20T12:52:38;98750.81;;;3.15;70.54
11212;BME280;5663;50.864;12.096;2022-11-20T12:55:25;98741.56;;;3.10;70.68
11212;BME280;5663;50.864;12.096;2022-11-20T12:58:02;98743.94;;;3.16;70.58
11212;BME280;5663;50.864;12.096;2022-11-20T13:00:31;98743.84;;;3.19;70.47
11212;BME280;5663;50.864;12.096;2022-11-20T13:06:10;98745.53;;;3.20;70.32
11212;BME280;5663;50.864;12.096;2022-11-20T13:08:42;98749.78;;;3.21;70.84
11212;BME280;5663;50.864;12.096;2022-11-20T13:11:18;98724.66;;;3.03;70.61
11212;BME280;5663;50.864;12.096;2022-11-20T13:14:11;98745.53;;;3.20;70.32
11212;BME280;5663;50.864;12.096;2022-11-20T13:16:46;98750.69;;;3.18;70.67
11212;BME280;5663;50.864;12.096;2022-11-20T13:19:17;98752.53;;;3.15;70.60
11212;BME280;5663;50.864;12.096;2022-11-20T13:21:47;98755.28;;;3.09;70.86
11212;BME280;5663;50.864;12.096;2022-11-20T13:24:26;98756.13;;;3.09;70.94
11212;BME280;5663;50.864;12.096;2022-11-20T13:27:04;98750.16;;;3.09;70.56
11212;BME280;5663;50.864;12.096;2022-11-20T13:29:34;98753.63;;;3.08;70.75
11212;BME280;5663;50.864;12.096;2022-11-20T13:32:04;98750.16;;;3.09;70.56
11212;BME280;5663;50.864;12.096;2022-11-20T13:34:34;98753.63;;;3.08;70.55